createdAt,value
2022-08-20T00:00:15.818Z,1.10
2022-08-20T00:02:49.979Z,0.98
2022-08-20T00:05:27.323Z,0.85
2022-08-20T00:07:59.680Z,1.00
2022-08-20T00:10:30.398Z,1.13
2022-08-20T00:12:57.276Z,1.15
2022-08-20T00:15:28.477Z,0.70
2022-08-20T00:20:52.503Z,1.23
2022-08-20T00:23:22.758Z,1.13
2022-08-20T00:26:35.680Z,1.20
2022-08-20T00:29:03.824Z,1.13
2022-08-20T00:31:34.787Z,0.93
2022-08-20T00:34:05.524Z,1.15
2022-08-20T00:36:42.654Z,0.98
2022-08-20T00:39:09.746Z,1.10
2022-08-20T00:41:36.433Z,1.10
2022-08-20T00:44:18.834Z,1.20
2022-08-20T00:47:11.702Z,0.98
2022-08-20T00:49:41.765Z,1.17
2022-08-20T00:52:18.576Z,1.30
2022-08-20T00:54:59.873Z,1.08
2022-08-20T00:57:59.996Z,1.20
2022-08-20T01:00:38.593Z,1.15
2022-08-20T01:03:11.077Z,1.40
2022-08-20T01:05:40.810Z,1.10
2022-08-20T01:08:37.917Z,1.40
2022-08-20T01:11:29.733Z,1.50
2022-08-20T01:17:05.839Z,1.75
2022-08-20T01:19:43.709Z,1.42
2022-08-20T01:25:12.762Z,1.23
2022-08-20T01:27:44.991Z,1.63
2022-08-20T01:30:16.151Z,1.30
2022-08-20T01:32:45.718Z,1.88
2022-08-20T01:41:40.779Z,1.70
2022-08-20T01:47:21.638Z,1.90
2022-08-20T01:49:58.950Z,1.20
2022-08-20T01:52:32.920Z,1.85
2022-08-20T01:55:00.726Z,1.70
2022-08-20T01:57:28.505Z,1.60
2022-08-20T01:59:55.386Z,1.80
2022-08-20T02:02:23.625Z,1.80
2022-08-20T02:04:53.921Z,1.80
2022-08-20T02:07:24.217Z,1.80
2022-08-20T02:13:01.189Z,1.80
2022-08-20T02:15:34.455Z,1.95
2022-08-20T02:18:09.477Z,1.95
2022-08-20T02:20:38.926Z,1.60
2022-08-20T02:23:06.947Z,1.50
2022-08-20T02:25:40.817Z,1.73
2022-08-20T02:28:10.266Z,1.88
2022-08-20T02:30:41.378Z,1.73
2022-08-20T02:33:11.150Z,1.75
2022-08-20T02:35:41.954Z,1.70
2022-08-20T02:38:17.076Z,1.80
2022-08-20T02:40:48.364Z,2.25
2022-08-20T02:43:17.577Z,2.10
2022-08-20T02:49:04.896Z,2.30
2022-08-20T02:51:33.084Z,2.38
2022-08-20T02:54:01.515Z,2.25
2022-08-20T02:56:28.853Z,2.40
2022-08-20T03:02:00.767Z,2.17
2022-08-20T03:04:31.089Z,2.30
2022-08-20T03:07:05.239Z,2.40
2022-08-20T03:09:39.328Z,2.20
2022-08-20T03:12:31.028Z,2.17
2022-08-20T03:15:02.047Z,2.97
2022-08-20T03:17:37.247Z,2.65
2022-08-20T03:20:06.756Z,2.38
2022-08-20T03:22:34.142Z,2.38
2022-08-20T03:25:00.905Z,2.60
2022-08-20T03:27:31.233Z,2.90
2022-08-20T03:30:08.796Z,2.60
2022-08-20T03:35:04.145Z,2.63
2022-08-20T03:37:35.290Z,2.63
2022-08-20T03:43:26.976Z,2.90
2022-08-20T03:45:53.687Z,2.60
2022-08-20T03:51:19.549Z,2.72
2022-08-20T03:53:46.217Z,2.60
2022-08-20T03:56:16.155Z,3.05
2022-08-20T03:59:06.007Z,3.17
2022-08-20T04:01:46.236Z,3.00
2022-08-20T04:04:46.755Z,3.15
2022-08-20T04:07:24.725Z,3.03
2022-08-20T04:09:54.333Z,3.03
2022-08-20T04:12:24.532Z,3.10
2022-08-20T04:14:52.183Z,3.50
2022-08-20T04:17:22.655Z,3.40
2022-08-20T04:19:58.142Z,3.20
2022-08-20T04:22:25.705Z,3.20
2022-08-20T04:27:52.569Z,3.42
2022-08-20T04:30:22.954Z,3.17
2022-08-20T04:33:17.066Z,3.50
2022-08-20T04:35:49.465Z,3.08
2022-08-20T04:38:23.002Z,3.15
2022-08-20T04:41:01.414Z,3.10
2022-08-20T04:43:37.559Z,3.25
2022-08-20T04:46:09.212Z,3.13
2022-08-20T04:48:42.584Z,3.30
2022-08-20T04:51:15.890Z,3.40
2022-08-20T04:53:44.447Z,3.65
2022-08-20T04:56:22.654Z,3.58
2022-08-20T04:58:50.390Z,3.80
2022-08-20T05:01:29.437Z,3.30
2022-08-20T05:04:01.530Z,3.33
2022-08-20T05:06:36.232Z,3.40
2022-08-20T05:09:05.452Z,3.40
2022-08-20T05:11:33.578Z,3.28
2022-08-20T05:14:08.007Z,3.35
2022-08-20T05:16:39.089Z,3.53
2022-08-20T05:19:10.040Z,3.38
2022-08-20T05:21:37.010Z,3.70
2022-08-20T05:24:04.643Z,3.60
2022-08-20T05:26:34.273Z,3.40
2022-08-20T05:29:04.040Z,3.40
2022-08-20T05:31:33.348Z,3.30
2022-08-20T05:43:27.168Z,3.75
2022-08-20T05:49:18.201Z,3.83
2022-08-20T05:51:50.598Z,4.05
2022-08-20T05:56:47.407Z,3.30
2022-08-20T05:59:24.006Z,3.70
2022-08-20T06:01:52.038Z,4.10
2022-08-20T06:04:24.099Z,3.60
2022-08-20T06:07:07.704Z,3.92
2022-08-20T06:09:38.322Z,4.00
2022-08-20T06:12:08.201Z,4.10
2022-08-20T06:14:35.299Z,3.70
2022-08-20T06:17:06.955Z,3.88
2022-08-20T06:22:18.999Z,3.67
2022-08-20T06:24:51.326Z,3.92
2022-08-20T06:27:21.230Z,3.72
2022-08-20T06:29:59.093Z,3.70
2022-08-20T06:32:33.364Z,3.78
2022-08-20T06:35:08.891Z,3.80
2022-08-20T06:37:37.528Z,3.58
2022-08-20T06:40:33.646Z,3.60
2022-08-20T06:45:44.277Z,3.80
2022-08-20T06:48:15.343Z,3.45
2022-08-20T06:50:47.668Z,4.00
2022-08-20T06:53:18.568Z,3.75
2022-08-20T06:55:50.607Z,3.60
2022-08-20T06:58:37.537Z,3.40
2022-08-20T07:01:20.307Z,3.47
2022-08-20T07:03:54.894Z,4.05
2022-08-20T07:10:05.456Z,3.08
2022-08-20T07:12:41.840Z,3.10
2022-08-20T07:15:40.316Z,3.00
2022-08-20T07:18:07.248Z,3.33
2022-08-20T07:20:36.105Z,2.72
2022-08-20T07:23:07.512Z,3.28
2022-08-20T07:25:34.384Z,3.07
2022-08-20T07:28:06.683Z,3.17
2022-08-20T07:33:36.746Z,3.35
2022-08-20T07:36:08.451Z,3.70
2022-08-20T07:38:52.356Z,3.60
2022-08-20T07:41:19.801Z,4.00
2022-08-20T07:43:54.468Z,3.40
2022-08-20T07:46:24.156Z,3.20
2022-08-20T07:54:49.003Z,3.50
2022-08-20T07:57:16.608Z,2.85
2022-08-20T07:59:43.283Z,3.33
2022-08-20T08:02:13.504Z,2.90
2022-08-20T08:04:42.729Z,3.30
2022-08-20T08:07:09.827Z,2.78
2022-08-20T08:12:41.413Z,2.90
2022-08-20T08:15:14.485Z,2.85
2022-08-20T08:17:44.538Z,2.70
2022-08-20T08:20:14.352Z,3.03
2022-08-20T08:22:42.349Z,2.78
2022-08-20T08:25:18.625Z,2.22
2022-08-20T08:33:31.760Z,2.92
2022-08-20T08:36:52.470Z,2.88
2022-08-20T08:39:34.636Z,2.35
2022-08-20T08:42:14.154Z,2.60
2022-08-20T08:44:53.280Z,3.17
2022-08-20T08:47:30.659Z,2.50
2022-08-20T08:49:58.224Z,2.42
2022-08-20T08:52:31.627Z,2.38
2022-08-20T08:55:02.782Z,2.20
2022-08-20T08:57:30.184Z,2.47
2022-08-20T09:00:05.294Z,2.83
2022-08-20T09:02:35.493Z,2.25
2022-08-20T09:05:10.630Z,2.00
2022-08-20T09:07:37.436Z,2.33
2022-08-20T09:10:06.262Z,2.45
2022-08-20T09:12:35.223Z,2.67
2022-08-20T09:15:07.767Z,2.38
2022-08-20T09:17:36.912Z,2.22
2022-08-20T09:20:04.395Z,1.98
2022-08-20T09:22:32.721Z,2.40
2022-08-20T09:25:02.604Z,2.05
2022-08-20T09:27:32.323Z,2.45
2022-08-20T09:29:59.002Z,2.28
2022-08-20T09:32:26.071Z,2.17
2022-08-20T09:34:59.169Z,2.20
2022-08-20T09:37:30.613Z,2.03
2022-08-20T09:40:08.098Z,2.08
2022-08-20T09:42:41.696Z,2.17
2022-08-20T09:45:11.646Z,1.80
2022-08-20T09:47:55.251Z,1.90
2022-08-20T09:50:31.582Z,1.50
2022-08-20T09:53:00.471Z,1.83
2022-08-20T09:55:37.170Z,1.80
2022-08-20T09:58:26.786Z,1.80
2022-08-20T10:01:00.665Z,1.85
2022-08-20T10:03:52.928Z,1.73
2022-08-20T10:06:22.057Z,1.67
2022-08-20T10:09:20.727Z,1.70
2022-08-20T10:11:49.248Z,1.58
2022-08-20T10:14:15.982Z,1.58
2022-08-20T10:16:42.699Z,1.63
2022-08-20T10:19:09.424Z,1.80
2022-08-20T10:21:39.240Z,1.50
2022-08-20T10:24:06.334Z,1.70
2022-08-20T10:26:36.901Z,1.67
2022-08-20T10:29:04.701Z,1.20
2022-08-20T10:31:34.148Z,1.13
2022-08-20T10:36:58.294Z,1.30
2022-08-20T10:39:25.004Z,1.45
2022-08-20T10:41:51.658Z,1.40
2022-08-20T10:44:20.762Z,1.40
2022-08-20T10:46:51.083Z,1.23
2022-08-20T10:49:23.650Z,1.10
2022-08-20T10:51:55.763Z,1.10
2022-08-20T10:54:22.420Z,1.08
2022-08-20T10:56:49.202Z,1.00
2022-08-20T10:59:19.116Z,1.20
2022-08-20T11:01:47.932Z,1.02
2022-08-20T11:04:15.871Z,1.00
2022-08-20T11:06:49.180Z,0.80
2022-08-20T11:09:19.065Z,1.10
2022-08-20T11:11:47.888Z,0.90
2022-08-20T11:14:17.173Z,1.10
2022-08-20T11:16:48.874Z,1.02
2022-08-20T11:19:18.841Z,0.77
2022-08-20T11:21:45.452Z,1.00
2022-08-20T11:24:14.316Z,0.90
2022-08-20T11:26:41.261Z,0.77
2022-08-20T11:29:08.044Z,1.00
2022-08-20T11:31:34.656Z,1.23
2022-08-20T11:34:05.170Z,1.30
2022-08-20T11:36:36.357Z,1.15
2022-08-20T11:39:03.759Z,1.48
2022-08-20T11:41:31.289Z,1.30
2022-08-20T11:44:20.376Z,1.50
2022-08-20T11:46:49.049Z,1.20
2022-08-20T11:49:15.856Z,1.20
2022-08-20T11:51:49.566Z,1.30
2022-08-20T11:54:19.224Z,1.20
2022-08-20T11:56:48.953Z,1.15
2022-08-20T11:59:16.339Z,1.00
2022-08-20T12:02:01.919Z,1.15
2022-08-20T12:04:55.149Z,1.20
2022-08-20T12:08:27.239Z,1.30
2022-08-20T12:11:00.228Z,1.10
2022-08-20T12:13:47.777Z,1.10
2022-08-20T12:16:18.367Z,0.98
2022-08-20T12:18:48.440Z,0.75
2022-08-20T12:21:15.655Z,1.13
2022-08-20T12:23:45.080Z,0.80
2022-08-20T12:26:11.812Z,1.00
2022-08-20T12:28:40.560Z,0.90
2022-08-20T12:31:07.257Z,0.52
2022-08-20T12:33:37.277Z,0.70
2022-08-20T12:36:06.543Z,0.70
2022-08-20T12:38:33.521Z,0.30
2022-08-20T12:41:01.805Z,0.60
2022-08-20T12:43:30.993Z,0.50
2022-08-20T12:45:57.732Z,0.40
2022-08-20T12:48:32.795Z,0.52
2022-08-20T12:50:59.618Z,0.40
2022-08-20T12:53:26.324Z,0.45
2022-08-20T12:55:55.223Z,0.65
2022-08-20T12:58:29.112Z,0.60
2022-08-20T13:00:55.821Z,0.50
2022-08-20T13:03:23.654Z,0.45
2022-08-20T13:05:52.341Z,0.30
2022-08-20T13:08:27.791Z,0.30
2022-08-20T13:11:00.363Z,0.30
2022-08-20T13:13:27.194Z,0.43
2022-08-20T13:15:57.942Z,0.40
2022-08-20T13:18:27.711Z,0.40
2022-08-20T13:20:54.437Z,0.32
2022-08-20T13:23:25.477Z,0.30
2022-08-20T13:25:52.330Z,0.67
2022-08-20T13:28:21.207Z,0.30
2022-08-20T13:30:52.987Z,0.40
2022-08-20T13:35:46.565Z,0.50
2022-08-20T13:38:13.467Z,0.30
2022-08-20T13:40:40.152Z,0.38
2022-08-20T13:43:14.362Z,0.30
2022-08-20T13:45:41.393Z,0.60
2022-08-20T13:48:14.913Z,0.60
2022-08-20T13:50:47.488Z,0.70
2022-08-20T13:53:15.034Z,0.73
2022-08-20T13:55:42.378Z,0.50
2022-08-20T13:58:12.954Z,0.73
2022-08-20T14:00:39.850Z,0.50
2022-08-20T14:03:09.230Z,0.70
2022-08-20T14:05:36.992Z,0.52
2022-08-20T14:08:10.496Z,0.60
2022-08-20T14:10:37.984Z,0.90
2022-08-20T14:13:06.424Z,0.90
2022-08-20T14:15:37.245Z,0.82
2022-08-20T14:18:06.446Z,0.50
2022-08-20T14:20:33.851Z,0.82
2022-08-20T14:23:01.706Z,0.80
2022-08-20T14:25:30.305Z,0.80
2022-08-20T14:28:12.571Z,0.95
2022-08-20T14:30:40.227Z,0.60
2022-08-20T14:33:09.478Z,0.70
2022-08-20T14:35:37.765Z,0.70
2022-08-20T14:38:06.452Z,0.80
2022-08-20T14:40:36.329Z,1.30
2022-08-20T14:43:03.690Z,1.00
2022-08-20T14:45:34.182Z,0.93
2022-08-20T14:48:06.593Z,0.98
2022-08-20T14:50:38.040Z,1.10
2022-08-20T14:53:06.643Z,0.90
2022-08-20T14:55:37.453Z,1.30
2022-08-20T14:58:14.298Z,0.90
2022-08-20T15:00:42.359Z,1.10
2022-08-20T15:03:12.696Z,1.05
2022-08-20T15:05:46.736Z,1.23
2022-08-20T15:08:20.238Z,1.13
2022-08-20T15:10:47.011Z,0.90
2022-08-20T15:13:13.661Z,1.00
2022-08-20T15:21:49.220Z,1.13
2022-08-20T15:24:19.392Z,0.90
2022-08-20T15:26:46.840Z,0.98
2022-08-20T15:29:23.041Z,1.00
2022-08-20T15:31:53.356Z,1.10
2022-08-20T15:34:49.451Z,1.23
2022-08-20T15:37:25.326Z,1.05
2022-08-20T15:39:53.181Z,1.48
2022-08-20T15:42:23.403Z,1.30
2022-08-20T15:44:55.832Z,1.30
2022-08-20T15:47:36.335Z,1.08
2022-08-20T15:50:07.957Z,1.42
2022-08-20T15:52:44.449Z,1.42
2022-08-20T15:55:40.730Z,1.30
2022-08-20T15:58:21.930Z,1.48
2022-08-20T16:01:24.071Z,1.50
2022-08-20T16:04:10.391Z,1.30
2022-08-20T16:06:37.472Z,1.20
2022-08-20T16:09:33.576Z,1.38
2022-08-20T16:12:03.858Z,1.48
2022-08-20T16:14:41.115Z,1.65
2022-08-20T16:18:05.001Z,1.67
2022-08-20T16:20:43.314Z,1.20
2022-08-20T16:23:20.756Z,1.40
2022-08-20T16:26:08.253Z,1.65
2022-08-20T16:28:52.492Z,1.30
2022-08-20T16:31:23.816Z,1.55
2022-08-20T16:34:33.201Z,1.58
2022-08-20T16:37:36.398Z,1.17
2022-08-20T16:40:25.274Z,1.40
2022-08-20T16:42:57.915Z,1.40
2022-08-20T16:45:45.441Z,1.40
2022-08-20T16:48:19.359Z,1.50
2022-08-20T16:51:11.448Z,1.40
2022-08-20T16:53:43.254Z,1.40
2022-08-20T16:56:10.948Z,1.17
2022-08-20T16:58:38.982Z,1.30
2022-08-20T17:01:14.337Z,1.55
2022-08-20T17:03:51.714Z,1.27
2022-08-20T17:06:46.905Z,1.13
2022-08-20T17:09:21.568Z,1.60
2022-08-20T17:11:51.064Z,1.40
2022-08-20T17:14:53.782Z,1.48
2022-08-20T17:17:27.332Z,1.38
2022-08-20T17:20:03.993Z,1.60
2022-08-20T17:25:38.665Z,2.05
2022-08-20T17:28:15.347Z,1.80
2022-08-20T17:30:48.300Z,1.40
2022-08-20T17:33:33.425Z,1.50
2022-08-20T17:36:08.572Z,1.15
2022-08-20T17:38:50.396Z,0.95
2022-08-20T17:41:35.329Z,1.38
2022-08-20T17:44:06.530Z,1.58
2022-08-20T17:46:44.605Z,1.30
2022-08-20T17:49:35.776Z,1.40
2022-08-20T17:52:18.258Z,1.50
2022-08-20T17:54:48.408Z,0.98
2022-08-20T17:57:17.547Z,1.30
2022-08-20T18:00:02.309Z,1.10
2022-08-20T18:02:33.387Z,1.50
2022-08-20T18:05:09.454Z,1.55
2022-08-20T18:07:45.295Z,1.42
2022-08-20T18:10:21.491Z,1.23
2022-08-20T18:12:53.512Z,1.15
2022-08-20T18:15:32.025Z,1.10
2022-08-20T18:18:13.962Z,1.10
2022-08-20T18:21:02.528Z,1.20
2022-08-20T18:23:47.553Z,1.45
2022-08-20T18:26:55.939Z,1.30
2022-08-20T18:29:59.419Z,1.17
2022-08-20T18:32:39.463Z,1.20
2022-08-20T18:35:38.441Z,1.40
2022-08-20T18:38:22.796Z,1.65
2022-08-20T18:40:55.199Z,1.30
2022-08-20T18:43:31.657Z,1.45
2022-08-20T18:46:29.497Z,1.25
2022-08-20T18:49:02.878Z,1.25
2022-08-20T18:51:51.514Z,1.35
2022-08-20T18:54:35.127Z,1.23
2022-08-20T18:57:07.976Z,1.35
2022-08-20T18:59:47.504Z,1.30
2022-08-20T19:02:22.268Z,1.48
2022-08-20T19:05:07.588Z,1.35
2022-08-20T19:07:49.013Z,1.40
2022-08-20T19:10:40.718Z,1.25
2022-08-20T19:13:42.652Z,1.50
2022-08-20T19:16:36.326Z,1.40
2022-08-20T19:19:12.592Z,1.35
2022-08-20T19:21:44.314Z,1.20
2022-08-20T19:27:06.089Z,1.10
2022-08-20T19:29:56.764Z,1.30
2022-08-20T19:32:32.489Z,1.20
2022-08-20T19:35:02.735Z,1.40
2022-08-20T19:37:39.709Z,1.40
2022-08-20T19:40:32.492Z,1.08
2022-08-20T19:43:04.116Z,1.23
2022-08-20T19:45:51.272Z,1.20
2022-08-20T19:48:32.962Z,1.30
2022-08-20T19:51:57.046Z,0.97
2022-08-20T19:54:26.605Z,1.35
2022-08-20T19:57:04.594Z,1.60
2022-08-20T19:59:31.449Z,1.45
2022-08-20T20:02:04.828Z,1.85
2022-08-20T20:04:55.454Z,1.60
2022-08-20T20:07:50.129Z,1.48
2022-08-20T20:10:35.001Z,1.67
2022-08-20T20:13:12.035Z,1.52
2022-08-20T20:15:39.988Z,1.50
2022-08-20T20:18:08.232Z,1.55
2022-08-20T20:20:57.254Z,1.50
2022-08-20T20:23:45.525Z,1.50
2022-08-20T20:26:21.447Z,1.50
2022-08-20T20:28:53.903Z,1.50
2022-08-20T20:33:57.035Z,1.40
2022-08-20T20:36:45.671Z,1.30
2022-08-20T20:39:37.048Z,1.95
2022-08-20T20:42:08.093Z,1.42
2022-08-20T20:44:38.426Z,1.20
2022-08-20T20:47:25.876Z,1.60
2022-08-20T20:50:47.132Z,1.42
2022-08-20T20:54:14.089Z,1.30
2022-08-20T20:56:42.493Z,1.50
2022-08-20T20:59:10.199Z,1.20
2022-08-20T21:01:49.578Z,1.42
2022-08-20T21:04:22.852Z,1.85
2022-08-20T21:09:24.639Z,1.83
2022-08-20T21:11:53.873Z,1.38
2022-08-20T21:14:21.154Z,1.48
2022-08-20T21:16:47.892Z,1.45
2022-08-20T21:19:15.375Z,1.65
2022-08-20T21:21:46.429Z,1.65
2022-08-20T21:24:13.284Z,1.60
2022-08-20T21:32:12.442Z,1.50
2022-08-20T21:37:12.824Z,1.90
2022-08-20T21:39:40.332Z,1.63
2022-08-20T21:42:21.608Z,1.80
2022-08-20T21:45:04.100Z,1.80
2022-08-20T21:47:30.735Z,1.90
2022-08-20T21:49:59.635Z,1.58
2022-08-20T21:52:26.401Z,1.30
2022-08-20T21:54:56.182Z,1.67
2022-08-20T21:57:27.181Z,1.55
2022-08-20T21:59:55.186Z,1.50
2022-08-20T22:02:22.095Z,1.63
2022-08-20T22:04:54.123Z,2.15
2022-08-20T22:07:20.945Z,1.30
2022-08-20T22:09:52.814Z,1.67
2022-08-20T22:12:24.347Z,1.40
2022-08-20T22:14:51.764Z,1.80
2022-08-20T22:17:18.726Z,1.50
2022-08-20T22:19:48.257Z,1.30
2022-08-20T22:22:15.306Z,1.50
2022-08-20T22:24:42.352Z,1.80
2022-08-20T22:27:09.207Z,1.60
2022-08-20T22:29:35.953Z,1.25
2022-08-20T22:32:05.488Z,1.90
2022-08-20T22:34:34.977Z,1.40
2022-08-20T22:37:04.591Z,1.55
2022-08-20T22:39:32.828Z,1.70
2022-08-20T22:42:02.092Z,1.60
2022-08-20T22:44:31.023Z,1.55
2022-08-20T22:47:04.211Z,1.30
2022-08-20T22:49:34.141Z,1.70
2022-08-20T22:52:05.153Z,2.10
2022-08-20T22:54:35.123Z,1.30
2022-08-20T22:57:01.740Z,1.63
2022-08-20T22:59:30.705Z,1.50
2022-08-20T23:02:09.378Z,2.00
2022-08-20T23:04:36.591Z,1.83
2022-08-20T23:07:09.456Z,1.80
2022-08-20T23:09:41.138Z,1.70
2022-08-20T23:12:08.611Z,1.48
2022-08-20T23:14:35.696Z,1.70
2022-08-20T23:17:13.694Z,1.55
2022-08-20T23:22:39.170Z,1.50
2022-08-20T23:25:12.744Z,1.50
2022-08-20T23:27:49.665Z,1.90
2022-08-20T23:30:19.210Z,1.77
2022-08-20T23:35:43.876Z,1.88
2022-08-20T23:44:06.131Z,1.73
2022-08-20T23:46:54.656Z,1.90
2022-08-20T23:49:26.233Z,2.00
2022-08-20T23:51:53.597Z,1.90
2022-08-20T23:54:23.389Z,1.80
2022-08-20T23:56:50.552Z,1.63
2022-08-20T23:59:19.698Z,2.05
